Dauntless Aviation
Greetings, Guest! To participate, [sign up for a free account] or [log in]
Airports Europe United Kingdom
EGLC
LCY

London City

London, UNITED KINGDOM

Airport Info
Edit

Location

Latitude / Longitude: 51°30'18"N / 0°3'12"E
  51°30.3'N / 0°3.21'E
  51.5050 / 0.0535

Nearby radio navigation aids

LCY CITY NDB on field.

Runway Information

Runway 10 /28

Dimensions: 4948 x 98 ft.
Surface: ASP
 
Runway 10
Runway 28
Latitude: 51.505528 51.504922
Longitude: 0.045753 0.064953
Elevation: 16 ft. 16 ft.
Runway true heading: 91.1 271.1
 

Instrument Procedures

  Aerodrome Chart
  Aircraft Parking/Docking Chart
  Control Zone and Control Area Chart

STARs (Standard Terminal Arrivals)

  STAR LONDON/City via SPEAR (East)
  STAR LONDON/City via ALKIN (South)
  STAR LONDON/City via SPEAR (Northwest)
  STAR LONDON/City via SPEAR (West)
  STAR LONDON/City via SPEAR (Alternate Holding at LOGAN and ALKIN) Chart

IAPs (Instrument Approach Procedures)

  ILS (5.5anddeg; GP) /DME/NDB (L) Rwy 09 (Aircraft Cat A and#44; B and#44; C)
  LOC/DME/NDB (L) Rwy 09 (Aircraft Cat A and#44; B and#44; C)
  Visual Approach Profile LONDON/City Rwy 09 (Aircraft Cat A and#44; B and#44; C)
  LONDON/City ILS (5.5anddeg; GP) /DME/NDB (L) Rwy 27 (Aircraft Cat A and#44; B and#44; C)
  LONDON/City LOC/DME/NDB (L) Rwy 27 (Aircraft Cat A and#44; B and#44; C)
  Visual Approach Profile LONDON/City Rwy 27 (Aircraft Cat A and#44; B and#44; C)
  ATC Surveillance Minimum Altitude Chart
  London City Aerodrome - Textual Data

Departure Procedures

  SID lONDON/City SOUTHAMPTON
  SID LONDON/City DOVER/LYDD
  SID LONDON/City CLACTON
  SID - Instrument (SID) LONDON/City BROOKMANS PARK/COMPTON
Satellite photo at:
Airport distance calculator
From:
Weather Reports

METAR

EGLC

EGLC 280550Z 02004KT 340V050 9999 VCTS FEW028 SCT040CB 17/11 Q1014
EGKB
11.4nm S
EGKB 280550Z 05005KT 9999 FEW010 16/13 Q1014
EGWU
17.8nm W
EGWU 280550Z 32004KT 6000 -TSRA FEW020CB SCT025 BKN060 15/11 Q1015 TEMPO 4000
EGLL
18.9nm SW
EGLL 280550Z 34006KT 300V010 9999 VCSH SCT025CB SCT029 16/11 Q1015 TEMPO 4000 +TSRA
EGSS
23.5nm N
EGSS 280550Z 36004KT 9000 -RA BKN045CB 13/13 Q1015 RERA
EGKK
23.8nm S
EGKK 280550Z 33008KT 240V360 9999 VCTS FEW015CB BKN018 17/12 Q1014

TAF

EGLC
TAF EGLC 280503Z 2806/2815 VRB04KT 9999 SCT030 TEMPO 2806/2815 6000 SHRA PROB30 TEMPO 2806/2809 4000 +SHRA TSRA
EGWU
17.8nm W
TAF AMD EGWU 280550Z 2806/2824 36008KT 9999 SCT040 TEMPO 2806/2812 6000 SHRA PROB30 TEMPO 2806/2812 4000 +TSRA SCT020CB PROB30 TEMPO 2812/2819 6000 SHRA PROB30 TEMPO 2822/2824 6000 RA SCT022
EGLL
18.9nm SW
TAF EGLL 280455Z 2806/2912 01007KT 9999 FEW040 TEMPO 2806/2820 7000 SHRA PROB30 TEMPO 2806/2810 4000 +SHRA TSRA BKN014 PROB30 TEMPO 2813/2819 4000 +SHRA PROB30 TEMPO 2900/2907 SCT006 BKN010
EGSS
23.5nm N
TAF EGSS 280503Z 2806/2912 VRB04KT 9999 SCT020 TEMPO 2806/2808 6000 SHRA BKN006 BKN020CB PROB40 TEMPO 2806/2808 4000 +SHRA TSRA TEMPO 2808/2821 7000 SHRA BECMG 2812/2815 02015KT PROB30 TEMPO 2818/2821 4000 +SHRA +RA PROB40 2900/2907 BKN008
EGKK
23.8nm S
TAF AMD EGKK 280542Z 2806/2912 02007KT 9999 SCT040 TEMPO 2806/2820 7000 SHRA PROB30 TEMPO 2806/2811 4000 +SHRA TSRA BKN014 PROB30 TEMPO 2813/2819 4000 +SHRA BECMG 2821/2824 7000 -RA TEMPO 2821/2903 RA SHRA PROB40 TEMPO 2821/2906 BKN010
EGMC
24.4nm NE
TAF EGMC 280503Z 2806/2815 34007KT 9999 FEW030 BECMG 2806/2809 04010KT TEMPO 2806/2815 6000 SHRA PROB40 TEMPO 2806/2809 4000 +SHRA TSRA
Safelog

 

Dauntless Aviation

© 2007-2014 Dauntless Aviation, all rights reserved
Information provided via PilotNav comes from a variety of official and unofficial data sources. As errors are possible, do not use PilotNav for primary flight planning purposes. Verify any information that you receive via PilotNav with current and canonical charts and other official documents. The material in this database is subject to database copyrights held by Dauntless Aviation and may not be copied without the express permission of Dauntless Aviation - licenses for use of part of all of this data are available for purchase; enquire via the Dauntless Aviation helpdesk. A number of mechanisms and markers exist in the database to protect against and identify infringement / copyright. Automated queries against this website are stictly prohibited, and all activity is logged and analyzed.